Latest Weather Observations for Tennant Creek

IDD60801

Issued at 9:35 pm CST Friday 31 October 2014 (issued every 30 minutes, with the page automatically refreshed every 10 minutes)

About weather observations | Map of weather stations | Latest weather observations for NT | Other Formats
Station Details ID: 015135 Name: TENNANT CREEK AIRPORT Lat: -19.64 Lon: 134.18 Height: 375.7 m
Data from the previous 72 hours. | See also: Recent months at Tennant Creek
Date/Time
CST
Temp
°C
App
Temp
°C
Dew
Point
Rel
Hum
%
Delta-T
°C
Wind Press
QNH
hPa
Press
MSL
hPa
Rain
since 9 am
mm
Dir
 
Spd
km/h
Gust
km/h
Spd
kts
Gust
kts
31/09:30pm 34.7 29.7 4.5 15 16.3 N 20 28 11 15 1009.2 - 0.0
31/09:00pm 34.9 29.7 5.3 16 16.2 N 22 28 12 15 1009.0 1006.5 0.0
31/08:30pm 34.6 30.5 6.3 17 15.7 N 17 22 9 12 1008.9 - 0.0
31/08:00pm 34.9 31.2 6.3 17 15.9 N 15 20 8 11 1008.5 - 0.0
31/07:30pm 35.6 31.9 6.4 16 16.3 N 15 22 8 12 1008.1 - 0.0
31/07:00pm 36.7 32.8 5.4 14 17.3 N 15 22 8 12 1007.7 - 0.0
31/06:30pm 37.4 32.9 6.0 14 17.5 N 19 22 10 12 1007.4 - 0.0
31/06:00pm 38.1 33.9 5.8 14 18.1 N 17 26 9 14 1007.2 1004.6 0.0
31/05:30pm 38.7 34.9 5.8 13 18.4 N 15 20 8 11 1006.8 - 0.0
31/05:00pm 38.9 34.2 5.2 12 18.7 NNW 19 26 10 14 1006.7 - 0.0
31/04:30pm 38.9 34.9 4.8 12 18.8 NNW 15 26 8 14 1006.9 - 0.0
31/04:00pm 39.3 34.9 4.6 12 19.2 NNW 17 26 9 14 1007.1 - 0.0
31/03:30pm 40.1 34.5 3.5 10 20.0 N 22 33 12 18 1007.3 - 0.0
31/03:00pm 39.9 34.8 4.2 11 19.7 N 20 30 11 16 1007.5 1004.9 0.0
31/02:30pm 38.9 34.7 5.8 13 18.6 NNE 17 30 9 16 1007.9 - 0.0
31/02:00pm 39.7 34.3 2.5 10 19.9 NW 20 26 11 14 1008.4 - 0.0
31/01:30pm 39.1 33.5 3.3 11 19.4 NNW 22 35 12 19 1008.6 - 0.0
31/01:00pm 38.9 33.4 4.0 11 19.1 N 22 30 12 16 1009.1 - 0.0
31/12:30pm 38.0 32.7 4.8 13 18.3 NNW 22 41 12 22 1009.7 - 0.0
31/12:18pm 38.6 32.7 4.0 12 18.9 NNW 24 35 13 19 1009.9 - 0.0
31/12:07pm 38.3 33.6 5.1 13 18.4 NNW 19 30 10 16 1010.2 - 0.0
31/12:00pm 37.7 32.5 5.5 14 17.9 N 22 32 12 17 1010.3 1007.7 0.0
31/11:30am 37.2 32.3 6.8 15 17.2 NNW 22 35 12 19 1010.9 - 0.0
31/11:00am 36.9 32.0 6.8 15 17.0 NNW 22 33 12 18 1011.3 - 0.0
31/10:30am 35.8 30.9 6.8 16 16.3 NNW 22 32 12 17 1011.7 - 0.0
31/10:00am 34.9 30.2 7.8 19 15.4 NNW 22 35 12 19 1011.9 - 0.0
31/09:30am 32.6 28.7 9.3 23 13.4 NNW 20 30 11 16 1012.3 - 0.0
31/09:00am 31.4 27.8 9.7 26 12.5 N 19 28 10 15 1012.5 1009.9 0.0
31/08:30am 30.6 26.1 10.2 28 11.8 N 24 28 13 15 1012.3 - 0.0
31/08:00am 29.3 25.4 9.4 29 11.3 N 20 24 11 13 1011.6 - 0.0
31/07:30am 27.9 24.7 8.4 29 10.8 NNE 15 24 8 13 1011.4 - 0.0
31/07:00am 26.2 22.3 1.2 19 12.1 ENE 11 17 6 9 1011.2 - 0.0
31/06:30am 25.5 22.2 0.1 19 12.0 E 7 11 4 6 1010.7 - 0.0
31/06:00am 25.0 21.4 -1.9 17 12.2 E 7 9 4 5 1010.2 1007.6 0.0
31/05:30am 25.3 21.4 -1.6 17 12.3 E 9 11 5 6 1009.8 - 0.0
31/05:00am 26.7 22.0 -2.1 15 13.2 E 13 17 7 9 1009.4 - 0.0
31/04:30am 27.1 23.3 -0.7 16 13.1 E 9 13 5 7 1008.9 - 0.0
31/04:00am 27.8 23.6 -1.1 15 13.6 E 11 13 6 7 1008.9 - 0.0
31/03:30am 30.4 24.2 -3.0 11 15.5 ENE 20 28 11 15 1008.9 - 0.0
31/03:00am 29.3 23.5 -1.3 13 14.5 E 19 33 10 18 1008.7 1006.2 0.0
31/02:30am 27.8 26.6 4.5 22 12.1 CALM 0 0 0 0 1008.3 - 0.0
31/02:00am 27.5 25.0 1.8 19 12.7 N 4 6 2 3 1008.6 - 0.0
31/01:30am 28.3 25.9 4.2 21 12.5 N 6 9 3 5 1008.8 - 0.0
31/01:00am 28.1 26.1 4.4 22 12.3 N 4 7 2 4 1009.2 - 0.0
31/12:30am 29.0 26.5 3.5 19 13.1 NNE 6 7 3 4 1009.6 - 0.0
31/12:00am 29.3 26.6 2.7 18 13.5 NNE 6 7 3 4 1010.0 1007.4 0.0
 
Date/Time
CST
Temp
°C
App
Temp
°C
Dew
Point
Rel
Hum
%
Delta-T
°C
Wind Press
QNH
hPa
Press
MSL
hPa
Rain
since 9 am
mm
Dir
 
Spd
km/h
Gust
km/h
Spd
kts
Gust
kts
30/11:30pm 29.8 26.3 1.2 16 14.2 NNE 9 13 5 7 1010.3 - 0.0
30/11:00pm 30.8 26.6 -1.0 13 15.3 E 11 11 6 6 1010.5 - 0.0
30/10:30pm 30.5 26.9 0.8 15 14.7 E 9 11 5 6 1010.6 - 0.0
30/10:00pm 31.0 27.2 -0.5 13 15.3 E 9 11 5 6 1010.7 - 0.0
30/09:30pm 31.2 27.5 0.1 13 15.3 E 9 9 5 5 1010.6 - 0.0
30/09:00pm 31.3 27.8 1.1 14 15.1 E 9 9 5 5 1010.5 1007.9 0.0
30/08:30pm 31.4 28.6 1.8 15 15.0 E 6 7 3 4 1010.4 - 0.0
30/08:00pm 32.4 30.3 6.7 20 14.2 E 7 7 4 4 1010.1 - 0.0
30/07:30pm 33.9 32.0 6.8 18 15.1 E 6 7 3 4 1009.8 - 0.0
30/07:00pm 35.1 31.8 -0.1 10 17.7 E 7 9 4 5 1009.5 - 0.0
30/06:30pm 36.9 33.5 1.7 11 18.4 NE 9 15 5 8 1009.1 - 0.0
30/06:00pm 38.1 34.0 -2.9 7 20.1 E 9 15 5 8 1008.9 1006.4 0.0
30/05:30pm 38.6 34.0 -4.0 6 20.6 E 11 17 6 9 1008.7 - 0.0
30/05:00pm 38.6 35.4 -0.2 9 19.9 NNE 6 15 3 8 1008.6 - 0.0
30/04:30pm 38.4 35.1 -1.3 8 19.9 NNE 6 13 3 7 1008.6 - 0.0
30/04:00pm 39.1 35.5 -2.2 7 20.6 ENE 7 13 4 7 1008.7 - 0.0
30/03:30pm 39.6 34.8 -6.5 5 21.6 ENE 11 24 6 13 1008.8 - 0.0
30/03:00pm 38.3 33.6 -5.1 6 20.6 ENE 11 24 6 13 1009.1 1006.6 0.0
30/02:30pm 39.1 34.5 -1.2 8 20.4 E 13 26 7 14 1009.4 - 0.0
30/02:00pm 38.8 33.2 -2.7 7 20.5 NE 17 30 9 16 1009.7 - 0.0
30/01:30pm 38.9 33.8 -5.4 6 21.0 NE 13 30 7 16 1010.3 - 0.0
30/01:00pm 38.5 33.4 -1.6 8 20.1 NE 15 26 8 14 1010.9 - 0.0
30/12:30pm 37.9 30.9 -3.7 7 20.1 NE 24 33 13 18 1011.4 - 0.0
30/12:00pm 36.9 29.7 -5.0 7 19.7 NE 24 39 13 21 1012.0 1009.5 0.0
30/11:30am 36.8 30.0 -2.0 8 19.1 NE 24 32 13 17 1012.4 - 0.0
30/11:00am 36.5 29.4 -0.9 9 18.7 NE 26 43 14 23 1012.9 - 0.0
30/10:30am 35.6 29.5 0.7 11 17.8 NNE 22 35 12 19 1013.4 - 0.0
30/10:00am 34.7 26.9 -0.5 10 17.5 NE 30 41 16 22 1013.9 - 0.0
30/09:30am 33.7 26.7 1.7 13 16.4 NNE 28 39 15 21 1014.0 - 0.0
30/09:00am 32.9 26.9 3.3 15 15.5 NNE 24 32 13 17 1014.1 1011.6 0.0
30/08:30am 32.4 26.3 2.9 15 15.3 NE 24 32 13 17 1014.1 - 0.0
30/08:00am 31.2 24.8 0.8 14 15.1 NE 24 32 13 17 1013.8 - 0.0
30/07:30am 29.5 23.0 -2.3 12 14.8 ENE 22 30 12 16 1013.7 - 0.0
30/07:00am 27.8 22.3 -5.7 11 14.5 ENE 15 20 8 11 1013.6 - 0.0
30/06:30am 26.1 21.5 -3.8 13 13.2 ENE 11 15 6 8 1013.4 - 0.0
30/06:00am 26.3 20.5 -4.3 13 13.4 ENE 17 22 9 12 1013.3 1010.7 0.0
30/05:30am 27.9 20.0 -9.2 8 15.1 E 26 33 14 18 1011.9 - 0.0
30/05:00am 27.6 20.9 -7.6 9 14.7 E 20 28 11 15 1011.7 - 0.0
30/04:30am 27.8 20.4 -7.5 9 14.8 E 24 33 13 18 1011.5 - 0.0
30/04:00am 27.9 20.6 -6.5 10 14.7 E 24 32 13 17 1011.3 - 0.0
30/03:30am 27.6 21.2 -4.6 12 14.2 E 20 24 11 13 1011.4 - 0.0
30/03:00am 28.0 22.3 -4.0 12 14.3 E 17 24 9 13 1011.5 1009.0 0.0
30/02:30am 27.5 21.9 -2.9 13 13.8 E 17 20 9 11 1011.5 - 0.0
30/02:00am 27.7 22.2 -2.3 14 13.8 E 17 22 9 12 1011.6 - 0.0
30/01:30am 28.2 22.8 -1.5 14 13.9 E 17 22 9 12 1011.8 - 0.0
30/01:00am 28.9 23.5 -1.5 14 14.3 E 17 22 9 12 1012.2 - 0.0
30/12:30am 29.6 24.6 -1.5 13 14.7 E 15 24 8 13 1012.4 - 0.0
30/12:00am 29.5 25.1 0.4 15 14.2 ENE 13 15 7 8 1012.5 1009.9 0.0
 
Date/Time
CST
Temp
°C
App
Temp
°C
Dew
Point
Rel
Hum
%
Delta-T
°C
Wind Press
QNH
hPa
Press
MSL
hPa
Rain
since 9 am
mm
Dir
 
Spd
km/h
Gust
km/h
Spd
kts
Gust
kts
29/11:30pm 29.4 25.6 1.8 17 13.8 NE 11 15 6 8 1012.8 - 0.0
29/11:00pm 29.9 26.4 1.0 15 14.3 E 9 11 5 6 1012.8 - 0.0
29/10:30pm 30.4 26.8 0.5 14 14.7 E 9 11 5 6 1012.8 - 0.0
29/10:00pm 30.3 26.9 1.9 16 14.3 E 9 9 5 5 1012.9 - 0.0
29/09:30pm 31.1 28.2 2.6 16 14.6 E 7 11 4 6 1012.8 - 0.0
29/09:00pm 32.1 29.0 1.4 14 15.5 ESE 7 9 4 5 1012.7 1010.1 0.0
29/08:30pm 32.7 29.5 0.8 13 16.0 ESE 7 11 4 6 1012.5 - 0.0
29/08:00pm 33.2 30.3 2.5 14 15.9 ESE 7 9 4 5 1012.3 - 0.0
29/07:30pm 34.3 31.2 1.2 12 16.9 ESE 7 9 4 5 1011.8 - 0.0
29/07:00pm 35.2 32.1 1.4 12 17.4 E 7 11 4 6 1011.5 - 0.0
29/06:30pm 36.8 32.1 -1.9 8 19.1 E 13 20 7 11 1011.2 - 0.0
29/06:00pm 37.5 33.6 -1.7 8 19.5 E 9 13 5 7 1010.9 1008.3 0.0
29/05:30pm 38.1 32.2 -1.9 8 19.9 E 19 26 10 14 1010.6 - 0.0
29/05:00pm 38.6 34.6 -2.3 7 20.3 ENE 9 20 5 11 1010.5 - 0.0
29/04:30pm 38.2 32.7 -2.1 8 20.0 SE 17 24 9 13 1010.7 - 0.0
29/04:00pm 38.4 35.1 0.1 9 19.7 SE 7 15 4 8 1010.7 - 0.0
29/03:30pm 40.0 36.3 -2.5 7 21.2 NE 7 15 4 8 1010.8 - 0.0
29/03:00pm 38.5 34.0 -0.6 8 19.9 E 13 22 7 12 1011.2 1008.7 0.0
29/02:30pm 38.3 34.6 -0.3 9 19.7 N 9 20 5 11 1011.5 - 0.0
29/02:00pm 38.2 32.2 -3.2 7 20.2 E 19 32 10 17 1012.0 - 0.0
29/01:30pm 38.1 31.7 -1.4 8 19.8 ENE 22 32 12 17 1012.4 - 0.0
29/01:00pm 38.3 32.0 -4.1 7 20.4 ENE 20 33 11 18 1013.0 - 0.0
29/12:30pm 37.2 30.1 -4.6 7 19.8 E 24 35 13 19 1013.4 - 0.0
29/12:00pm 36.3 29.5 -5.5 7 19.4 E 22 32 12 17 1014.0 1011.5 0.0
29/11:30am 35.9 28.6 -5.8 7 19.2 E 24 33 13 18 1014.5 - 0.0
29/11:00am 35.2 28.2 -7.3 6 19.0 ENE 22 32 12 17 1015.2 - 0.0
29/10:30am 34.4 26.4 -10.2 5 18.9 E 26 35 14 19 1015.7 - 0.0
29/10:00am 33.4 25.7 -10.9 5 18.4 E 24 35 13 19 1015.8 - 0.0
29/09:30am 32.5 22.7 -12.0 5 18.0 E 35 44 19 24 1016.0 - 0.0
29/09:00am 31.6 22.9 -9.6 6 17.2 E 30 41 16 22 1015.8 1013.3 0.0
29/08:30am 30.6 21.3 -9.3 7 16.6 E 33 46 18 25 1015.9 - 0.0
29/08:00am 29.3 19.7 -8.8 8 15.8 E 35 48 19 26 1015.9 - 0.0
29/07:00am 27.3 19.2 -6.3 10 14.3 E 28 39 15 21 1015.6 - 0.0
29/06:30am 26.8 19.2 -5.5 11 13.9 E 26 39 14 21 1015.5 - 0.0
29/06:00am 26.6 19.2 -4.0 13 13.5 E 26 39 14 21 1015.0 1012.4 0.0
29/05:30am 26.9 20.3 -3.6 13 13.6 ESE 22 33 12 18 1014.4 - 0.0
29/05:00am 27.2 20.7 -2.8 14 13.6 ESE 22 32 12 17 1014.1 - 0.0
29/04:30am 27.8 21.3 -2.6 13 13.9 ESE 22 30 12 16 1013.8 - 0.0
29/04:00am 28.0 21.9 -2.5 13 14.0 ESE 20 30 11 16 1013.6 - 0.0
29/03:30am 28.1 22.0 -2.3 13 14.0 ESE 20 32 11 17 1013.6 - 0.0
29/03:00am 28.4 22.3 -2.4 13 14.2 ESE 20 32 11 17 1013.5 - 0.0
29/02:30am 28.9 22.4 -2.5 13 14.5 ESE 22 32 12 17 1013.5 - 0.0
29/02:00am 29.1 22.7 -1.9 13 14.5 ESE 22 33 12 18 1013.5 - 0.0
29/01:30am 29.6 23.5 -2.0 13 14.8 ESE 20 28 11 15 1013.6 - 0.0
29/01:00am 29.8 23.8 -1.5 13 14.8 ESE 20 28 11 15 1013.7 - 0.0
29/12:30am 30.2 24.2 -1.3 13 15.0 ESE 20 32 11 17 1013.8 - 0.0
29/12:00am 30.5 24.6 -0.5 13 15.0 ESE 20 28 11 15 1014.0 1011.5 0.0
 
Date/Time
CST
Temp
°C
App
Temp
°C
Dew
Point
Rel
Hum
%
Delta-T
°C
Wind Press
QNH
hPa
Press
MSL
hPa
Rain
since 9 am
mm
Dir
 
Spd
km/h
Gust
km/h
Spd
kts
Gust
kts
28/11:30pm 30.8 24.3 0.2 14 15.0 ESE 24 32 13 17 1014.0 - 0.0
28/11:00pm 31.2 25.1 0.4 14 15.2 ESE 22 32 12 17 1014.1 - 0.0
28/10:30pm 31.2 25.5 0.8 14 15.1 ESE 20 30 11 16 1014.1 - 0.0
28/10:00pm 31.3 26.7 1.5 15 15.0 ESE 15 24 8 13 1014.1 - 0.0

Other Formats:

Comma delimited format used in spreadsheet applications
http://www.bom.gov.au/fwo/IDD60801/IDD60801.94238.axf

JavaScript Object Notation format (JSON) in row-major order
http://www.bom.gov.au/fwo/IDD60801/IDD60801.94238.json